Time;durP1;ratioP1;P1;durP2;ratioP2;P2;SDS_P1;SDS_P2;PMS_P1;PMS_P2;Temp;Humidity;BMP_temperature;BMP_pressure;BME280_temperature;BME280_humidity;BME280_pressure;Samples;Min_cycle;Max_cycle;Signal;HPM_P1;HPM_P2
2022/08/06 00:02:23;;;;;;;1.17;1.07;;;26.70;44.90;;;-142.21;39.53;112049.66;5052875;28;20231;-72
2022/08/06 00:04:52;;;;;;;1.90;1.37;;;26.60;44.90;;;-142.21;39.33;112049.66;5052986;28;20619;-72
2022/08/06 00:07:20;;;;;;;1.73;1.40;;;26.60;44.90;;;-142.21;39.55;112049.66;5052580;28;20704;-72
2022/08/06 00:09:47;;;;;;;1.40;1.30;;;26.60;44.90;;;-142.21;39.48;112049.66;5045651;28;20297;-72
2022/08/06 00:12:16;;;;;;;1.30;1.20;;;26.60;44.90;;;-142.21;39.63;112049.66;5052451;28;20220;-72
2022/08/06 00:14:46;;;;;;;1.70;1.50;;;26.60;45.00;;;-142.21;39.64;112049.66;5052864;28;20677;-71
2022/08/06 00:17:18;;;;;;;1.70;1.20;;;26.60;45.00;;;-142.21;39.43;112049.66;5053008;28;20277;-73
2022/08/06 00:19:45;;;;;;;1.20;1.10;;;26.50;45.10;;;-142.21;39.29;112049.66;5051594;28;20232;-71
2022/08/06 00:22:14;;;;;;;1.70;1.43;;;26.60;45.20;;;-142.21;39.19;112049.66;5045821;28;20209;-71
2022/08/06 00:24:41;;;;;;;1.80;1.70;;;26.50;45.00;;;-142.21;39.19;112049.66;5052737;28;20236;-70
2022/08/06 00:27:08;;;;;;;1.20;1.10;;;26.50;45.00;;;-142.21;39.43;112049.66;5052161;28;20312;-71
2022/08/06 00:29:35;;;;;;;1.80;1.30;;;26.50;45.10;;;-142.21;39.39;112049.66;5052367;28;20293;-71
2022/08/06 00:32:02;;;;;;;1.53;1.30;;;26.50;45.10;;;-142.21;39.58;112049.66;5052959;28;20285;-70
2022/08/06 00:34:29;;;;;;;2.33;1.40;;;26.50;45.10;;;-142.21;39.61;112049.66;5051850;28;20666;-72
2022/08/06 00:36:56;;;;;;;1.53;1.33;;;26.50;45.30;;;-142.21;39.46;112049.66;5052816;28;20208;-71
2022/08/06 00:39:25;;;;;;;2.43;1.40;;;26.40;45.20;;;-142.21;39.53;112049.66;5046194;28;20213;-72
2022/08/06 00:41:52;;;;;;;1.30;1.20;;;26.40;45.10;;;-142.21;39.46;112049.66;5052566;28;20213;-72
2022/08/06 00:44:20;;;;;;;1.60;1.20;;;26.40;45.10;;;-142.21;39.47;112049.66;5051324;28;20230;-72
2022/08/06 00:46:48;;;;;;;1.40;1.30;;;26.40;45.20;;;-142.21;39.69;112049.66;5052730;28;20201;-73
2022/08/06 00:49:17;;;;;;;3.40;1.70;;;26.40;45.20;;;-142.21;39.47;112049.66;5049139;28;20198;-73
2022/08/06 00:51:44;;;;;;;3.33;1.30;;;26.30;45.80;;;-142.21;39.51;112049.66;5032630;28;20199;-73
2022/08/06 00:54:11;;;;;;;1.40;1.30;;;26.30;45.10;;;-142.21;39.66;112049.66;5040063;28;20667;-72
2022/08/06 00:56:40;;;;;;;1.83;1.23;;;26.30;45.10;;;-142.21;39.51;112049.66;5051529;28;20630;-70
2022/08/06 00:59:07;;;;;;;2.83;1.37;;;26.30;45.00;;;-142.21;39.60;112049.66;5038490;28;20548;-72
2022/08/06 01:01:35;;;;;;;2.50;1.30;;;26.20;44.90;;;-142.21;39.35;112049.66;5052588;28;20198;-71
2022/08/06 01:04:02;;;;;;;1.30;1.20;;;26.20;44.80;;;-142.21;39.52;112049.66;5052653;28;20202;-71
2022/08/06 01:06:29;;;;;;;1.23;1.13;;;26.20;45.00;;;-142.21;39.30;112049.66;5058241;28;20272;-72
2022/08/06 01:08:57;;;;;;;1.03;1.03;;;26.20;44.90;;;-142.21;39.26;112049.66;5054168;28;20245;-72
2022/08/06 01:11:24;;;;;;;1.00;1.00;;;26.20;44.80;;;-142.21;39.01;112049.66;5051816;28;20372;-72
2022/08/06 01:13:56;;;;;;;1.47;1.23;;;26.20;44.70;;;-142.21;39.01;112049.66;5051810;28;20201;-72
2022/08/06 01:16:32;;;;;;;0.80;0.80;;;26.20;45.30;;;-142.21;38.81;112049.66;5051526;28;20193;-71
2022/08/06 01:19:20;;;;;;;3.10;1.50;;;26.10;44.60;;;-142.21;38.91;112049.66;5050915;28;20196;-71
2022/08/06 01:22:06;;;;;;;2.60;1.23;;;26.10;44.60;;;-142.21;38.63;112049.66;5051925;28;20603;-71
2022/08/06 01:25:02;;;;;;;1.13;1.03;;;26.10;44.40;;;-142.21;38.78;112049.66;5051789;28;20289;-72
2022/08/06 01:27:43;;;;;;;1.40;1.30;;;26.00;44.40;;;-142.21;38.71;112049.66;5046271;28;20582;-72
2022/08/06 01:30:17;;;;;;;1.50;1.40;;;26.00;44.50;;;-142.21;38.56;112049.66;5039803;28;20198;-71
2022/08/06 01:32:56;;;;;;;1.23;1.13;;;26.00;44.50;;;-142.21;38.48;112049.66;5051780;28;20592;-72
2022/08/06 01:35:28;;;;;;;2.17;1.23;;;26.00;44.50;;;-142.21;38.73;112049.66;5050906;28;20204;-71
2022/08/06 01:38:06;;;;;;;1.30;1.20;;;25.90;44.40;;;-142.21;38.57;112049.66;5047974;28;20186;-72
2022/08/06 01:40:38;;;;;;;1.30;1.10;;;26.00;44.40;;;-142.21;38.83;112049.66;5050101;28;20198;-72
2022/08/06 01:43:12;;;;;;;1.70;1.47;;;25.90;44.50;;;-142.21;38.83;112049.66;5051353;28;20241;-72
2022/08/06 01:45:42;;;;;;;1.40;1.30;;;25.90;44.40;;;-142.21;38.82;112049.66;5051858;28;20652;-72
2022/08/06 01:48:19;;;;;;;2.53;1.23;;;25.90;44.50;;;-142.21;38.74;112049.66;5049580;28;20592;-72
2022/08/06 01:50:50;;;;;;;1.30;1.20;;;26.00;44.70;;;-142.21;39.08;112049.66;5037331;28;20320;-72
2022/08/06 01:53:24;;;;;;;1.10;1.00;;;25.90;44.70;;;-142.21;39.15;112049.66;5050837;28;20190;-73
2022/08/06 01:55:59;;;;;;;1.13;1.03;;;25.90;44.80;;;-142.21;39.22;112049.66;5018302;28;20205;-73
2022/08/06 01:58:35;;;;;;;1.90;1.20;;;25.90;45.10;;;-142.21;39.59;112049.66;5040929;28;20225;-71
2022/08/06 02:01:07;;;;;;;1.30;1.20;;;25.90;45.10;;;-142.21;39.67;112049.66;5047877;28;20193;-71
2022/08/06 02:03:43;;;;;;;1.63;1.40;;;25.80;45.00;;;-142.21;39.58;112049.66;5050464;28;20302;-72
2022/08/06 02:06:15;;;;;;;1.80;1.13;;;25.80;45.60;;;-142.21;39.82;112049.66;5050767;28;20197;-72
2022/08/06 02:08:45;;;;;;;1.47;1.03;;;25.70;45.10;;;-142.21;39.97;112049.66;5042262;28;20206;-71
2022/08/06 02:11:13;;;;;;;1.60;1.40;;;25.70;45.30;;;-142.21;39.89;112049.66;5038017;28;20206;-72
2022/08/06 02:13:46;;;;;;;1.40;1.30;;;25.70;45.40;;;-142.21;39.96;112049.66;5050913;28;20233;-71
2022/08/06 02:16:15;;;;;;;1.10;1.00;;;25.70;45.50;;;-142.21;40.01;112049.66;5050375;28;20230;-71
2022/08/06 02:18:47;;;;;;;1.47;1.30;;;25.60;45.60;;;-142.21;40.25;112049.66;5049466;28;20285;-71
2022/08/06 02:21:20;;;;;;;1.67;1.53;;;25.60;45.60;;;-142.21;40.68;112049.66;5032775;28;20301;-72
2022/08/06 02:23:49;;;;;;;1.10;1.10;;;25.60;45.90;;;-142.21;40.61;112049.66;5051720;28;20201;-70
2022/08/06 02:26:20;;;;;;;2.90;1.80;;;25.50;46.60;;;-142.21;40.83;112049.66;5052888;28;20197;-71
2022/08/06 02:28:53;;;;;;;1.67;1.30;;;25.50;46.00;;;-142.21;40.95;112049.66;5054701;28;20308;-71
2022/08/06 02:31:20;;;;;;;2.30;1.50;;;25.40;46.20;;;-142.21;41.06;112049.66;5054569;28;20202;-72
2022/08/06 02:33:48;;;;;;;2.03;1.77;;;25.40;46.20;;;-142.21;41.23;112049.66;5055185;28;20205;-72
2022/08/06 02:36:20;;;;;;;1.90;1.80;;;25.40;46.30;;;-142.21;41.33;112049.66;5054593;28;20221;-72
2022/08/06 02:38:55;;;;;;;1.73;1.60;;;25.40;46.50;;;-142.21;41.61;112049.66;5054856;28;20192;-72
2022/08/06 02:41:31;;;;;;;2.40;1.90;;;25.30;46.60;;;-142.21;41.90;112049.66;5054433;28;20235;-72
2022/08/06 02:44:10;;;;;;;2.07;1.90;;;25.30;46.80;;;-142.21;41.89;112049.66;5041390;28;20316;-72
2022/08/06 02:46:46;;;;;;;1.70;1.60;;;25.20;46.90;;;-142.21;42.09;112049.66;5054820;28;20192;-72
2022/08/06 02:49:21;;;;;;;2.90;1.70;;;25.20;47.10;;;-142.21;42.25;112049.66;5053587;28;20297;-72
2022/08/06 02:51:59;;;;;;;2.17;1.97;;;25.10;47.90;;;-142.21;42.75;112049.66;5054867;28;20189;-72
2022/08/06 02:54:45;;;;;;;3.03;1.80;;;25.00;47.40;;;-142.21;42.77;112049.66;5054282;28;20194;-71
2022/08/06 02:57:21;;;;;;;2.93;1.60;;;25.00;47.40;;;-142.21;43.09;112049.66;5051454;28;20290;-70
2022/08/06 02:59:58;;;;;;;2.70;2.03;;;25.00;47.70;;;-142.21;43.29;112049.66;5048214;28;20251;-72
2022/08/06 03:02:29;;;;;;;3.93;1.83;;;24.90;47.80;;;-142.21;43.65;112049.66;5053655;28;20217;-72
2022/08/06 03:05:00;;;;;;;3.00;1.50;;;24.80;47.80;;;-142.21;44.08;112049.66;5054479;28;20650;-72
2022/08/06 03:07:35;;;;;;;2.83;1.97;;;24.80;48.10;;;-142.21;44.26;112049.66;5053524;28;20372;-72
2022/08/06 03:10:04;;;;;;;1.70;1.60;;;24.80;48.30;;;-142.21;44.41;112049.66;5050228;28;20192;-72
2022/08/06 03:12:34;;;;;;;2.97;1.83;;;24.70;48.40;;;-142.21;44.70;112049.66;5053582;28;20300;-72
2022/08/06 03:15:06;;;;;;;2.10;1.90;;;24.60;48.50;;;-142.21;44.90;112049.66;5054311;28;20222;-72
2022/08/06 03:17:37;;;;;;;1.80;1.70;;;24.60;48.50;;;-142.21;44.92;112049.66;5046593;28;20202;-72
2022/08/06 03:20:06;;;;;;;1.50;1.40;;;24.50;48.50;;;-142.21;45.03;112049.66;5050112;28;20289;-72
2022/08/06 03:22:37;;;;;;;2.47;1.93;;;24.50;48.70;;;-142.21;45.18;112049.66;5053662;28;20284;-71
2022/08/06 03:25:08;;;;;;;2.93;1.57;;;24.50;49.00;;;-142.21;45.54;112049.66;5054213;28;20727;-70
2022/08/06 03:27:37;;;;;;;2.57;1.60;;;24.40;49.10;;;-142.21;46.02;112049.66;5052775;28;20194;-72
2022/08/06 03:30:10;;;;;;;2.23;1.70;;;24.40;49.20;;;-142.21;46.63;112049.66;5053730;28;20201;-72
2022/08/06 03:32:38;;;;;;;1.70;1.60;;;24.40;49.50;;;-142.21;47.09;112049.66;5049557;28;20656;-71
2022/08/06 03:35:10;;;;;;;1.70;1.60;;;24.30;49.60;;;-142.21;47.22;112049.66;5054104;28;20611;-71
2022/08/06 03:37:38;;;;;;;2.07;1.40;;;24.30;49.70;;;-142.21;47.81;112049.66;5047888;28;20194;-71
2022/08/06 03:40:09;;;;;;;1.67;1.23;;;24.30;50.00;;;-142.21;47.87;112049.66;5053706;28;20228;-71
2022/08/06 03:42:36;;;;;;;2.33;1.70;;;24.30;50.10;;;-142.21;48.13;112049.66;5052932;28;20317;-71
2022/08/06 03:45:05;;;;;;;4.13;1.63;;;24.30;50.20;;;-142.21;48.32;112049.66;5053536;28;20194;-71
2022/08/06 03:47:38;;;;;;;3.40;1.60;;;24.20;51.00;;;-142.21;48.88;112049.66;5052587;28;20205;-71
2022/08/06 03:50:11;;;;;;;3.63;1.80;;;24.20;50.50;;;-142.21;49.51;112049.66;5053290;28;20206;-72
2022/08/06 03:52:45;;;;;;;4.10;2.30;;;24.20;50.70;;;-142.21;50.08;112049.66;5053171;28;20616;-71
2022/08/06 03:55:18;;;;;;;1.70;1.60;;;24.10;51.00;;;-142.21;50.31;112049.66;5053503;28;20197;-72
2022/08/06 03:57:51;;;;;;;2.30;1.97;;;24.10;51.10;;;-142.21;50.81;112049.66;5046192;28;20695;-70
2022/08/06 04:00:25;;;;;;;2.47;2.03;;;24.00;51.30;;;-142.21;51.12;112049.66;5050768;28;20559;-72
2022/08/06 04:02:55;;;;;;;2.73;2.13;;;24.00;51.40;;;-142.21;51.60;112049.66;5053600;28;20200;-71
2022/08/06 04:05:28;;;;;;;4.53;2.20;;;23.90;51.50;;;-142.21;51.96;112049.66;5052656;28;20744;-72
2022/08/06 04:07:58;;;;;;;1.90;1.80;;;23.90;51.80;;;-142.21;52.41;112049.66;5043511;28;20202;-71
2022/08/06 04:10:37;;;;;;;4.00;1.70;;;23.80;51.80;;;-142.21;53.74;112049.66;5052338;28;20562;-71
2022/08/06 04:13:08;;;;;;;5.20;2.30;;;23.80;52.20;;;-142.21;55.25;112049.66;5052727;28;20296;-71
2022/08/06 04:15:38;;;;;;;6.10;2.60;;;23.70;52.70;;;-142.21;56.24;112049.66;5052631;28;20228;-72
2022/08/06 04:18:11;;;;;;;2.70;1.90;;;23.60;53.10;;;-142.21;56.99;112049.66;5050687;28;20207;-71
2022/08/06 04:20:43;;;;;;;7.50;2.33;;;23.60;53.20;;;-142.21;57.43;112049.66;5046418;28;20617;-71
2022/08/06 04:23:12;;;;;;;2.53;2.07;;;23.60;53.50;;;-142.21;57.82;112049.66;5053137;28;20276;-71
2022/08/06 04:25:51;;;;;;;1.93;1.83;;;23.50;53.40;;;-142.21;59.14;112049.66;5052773;28;20203;-71
2022/08/06 04:28:21;;;;;;;2.93;2.10;;;23.50;53.80;;;-142.21;61.01;112049.66;5039446;28;20216;-71
2022/08/06 04:30:51;;;;;;;3.50;2.10;;;23.40;54.30;;;-142.21;60.66;112049.66;5068111;28;20225;-71
2022/08/06 04:33:22;;;;;;;2.53;2.20;;;23.40;54.10;;;-142.21;62.22;112049.66;5065230;28;20213;-71
2022/08/06 04:35:50;;;;;;;4.73;2.23;;;23.30;54.60;;;-142.21;61.59;112049.66;5053288;28;20189;-71
2022/08/06 04:38:21;;;;;;;3.10;2.13;;;23.30;54.40;;;-142.21;61.94;112049.66;5041498;28;20208;-71
2022/08/06 04:40:50;;;;;;;2.40;2.10;;;23.30;54.50;;;-142.21;62.10;112049.66;5045729;28;20563;-71
2022/08/06 04:43:17;;;;;;;5.20;2.40;;;23.30;54.80;;;-142.21;62.17;112049.66;5017775;28;20235;-71
2022/08/06 04:45:47;;;;;;;2.40;2.20;;;23.20;54.60;;;-142.21;62.43;112049.66;5052494;28;20268;-71
2022/08/06 04:48:17;;;;;;;4.63;2.97;;;23.20;54.80;;;-142.21;63.38;112049.66;5046989;28;20605;-72
2022/08/06 04:50:45;;;;;;;4.57;3.07;;;23.10;54.90;;;-142.21;64.01;112049.66;5032924;28;20215;-73
2022/08/06 04:53:16;;;;;;;6.83;3.10;;;23.10;55.30;;;-142.21;64.69;112049.66;5047962;28;20210;-72
2022/08/06 04:55:46;;;;;;;5.77;2.97;;;23.10;55.70;;;-142.21;63.75;112049.66;5052011;28;20643;-73
2022/08/06 04:58:17;;;;;;;3.60;2.40;;;23.10;55.30;;;-142.21;64.00;112049.66;5052474;28;20199;-72
2022/08/06 05:00:47;;;;;;;4.23;2.93;;;23.10;55.50;;;-142.21;63.30;112049.66;5052089;28;20279;-72
2022/08/06 05:03:16;;;;;;;3.60;2.50;;;23.10;55.40;;;-142.21;62.79;112049.66;5045112;28;20614;-72
2022/08/06 05:05:53;;;;;;;3.57;2.70;;;23.10;55.40;;;-142.21;63.43;112049.66;5050712;28;20238;-72
2022/08/06 05:08:25;;;;;;;2.60;2.00;;;23.00;55.50;;;-142.21;63.58;112049.66;5050213;28;20193;-72
2022/08/06 05:11:01;;;;;;;2.67;2.20;;;23.00;55.60;;;-142.21;63.82;112049.66;5038893;28;20213;-72
2022/08/06 05:13:36;;;;;;;4.27;1.70;;;23.00;55.80;;;-142.21;63.78;112049.66;5050794;28;20284;-73
2022/08/06 05:16:10;;;;;;;2.63;2.03;;;22.90;55.60;;;-142.21;63.60;112049.66;5052399;28;20190;-73
2022/08/06 05:18:46;;;;;;;1.90;1.80;;;22.90;55.70;;;-142.21;62.77;112049.66;5051401;28;20196;-73
2022/08/06 05:21:28;;;;;;;3.50;2.20;;;22.90;56.10;;;-142.21;62.64;112049.66;5052212;28;20197;-73
2022/08/06 05:23:57;;;;;;;1.83;1.70;;;22.90;55.50;;;-142.21;63.57;112049.66;5051930;28;20190;-73
2022/08/06 05:26:25;;;;;;;3.87;2.80;;;22.80;55.60;;;-142.21;63.24;112049.66;5051213;28;20565;-72
2022/08/06 05:28:52;;;;;;;1.73;1.63;;;22.80;55.40;;;-142.21;62.58;112049.66;5051090;28;20218;-73
2022/08/06 05:31:30;;;;;;;4.27;2.17;;;22.80;55.10;;;-142.21;63.12;112049.66;5051683;28;20710;-73
2022/08/06 05:33:59;;;;;;;1.93;1.77;;;22.80;55.30;;;-142.21;63.00;112049.66;5049128;28;20556;-72
2022/08/06 05:36:26;;;;;;;3.23;2.23;;;22.80;55.90;;;-142.21;62.86;112049.66;5045360;28;20208;-72
2022/08/06 05:38:53;;;;;;;2.13;1.90;;;22.80;55.20;;;-142.21;62.13;112049.66;5039948;28;20217;-71
2022/08/06 05:41:21;;;;;;;2.77;2.00;;;22.80;55.20;;;-142.21;61.57;112049.66;5051536;28;20240;-71
2022/08/06 05:43:49;;;;;;;2.13;1.73;;;22.80;55.10;;;-142.21;62.50;112049.66;5051294;28;20273;-73
2022/08/06 05:46:20;;;;;;;3.53;1.80;;;22.80;55.00;;;-142.21;62.06;112049.66;5049865;28;20718;-73
2022/08/06 05:48:55;;;;;;;1.70;1.60;;;22.80;55.00;;;-142.21;60.60;112049.66;5051474;28;20604;-72
2022/08/06 05:51:33;;;;;;;1.87;1.50;;;22.90;54.70;;;-142.21;59.69;112049.66;5051156;28;20193;-73
2022/08/06 05:54:09;;;;;;;2.47;1.80;;;22.90;54.50;;;-142.21;58.77;112049.66;5049173;28;20196;-73
2022/08/06 05:56:44;;;;;;;2.80;1.70;;;22.90;54.30;;;-142.21;57.81;112049.66;5049382;28;20200;-73
2022/08/06 05:59:20;;;;;;;1.90;1.80;;;22.90;54.00;;;-142.21;59.16;112049.66;5051544;28;20181;-72
2022/08/06 06:01:49;;;;;;;4.80;1.70;;;22.90;54.40;;;-142.21;58.02;112049.66;5032404;28;20212;-72
2022/08/06 06:04:20;;;;;;;2.77;1.63;;;23.00;53.80;;;-142.21;57.13;112049.66;5045102;28;20227;-72
2022/08/06 06:06:51;;;;;;;1.23;1.13;;;23.10;53.70;;;-142.21;56.29;112049.66;5053640;28;20283;-72
2022/08/06 06:09:24;;;;;;;1.40;1.13;;;23.10;53.30;;;-142.21;55.17;112049.66;5055013;28;20221;-72
2022/08/06 06:11:51;;;;;;;5.00;1.57;;;23.20;53.10;;;-142.21;55.13;112049.66;5055498;28;20192;-71
2022/08/06 06:14:37;;;;;;;2.80;1.67;;;23.20;53.00;;;-142.21;54.28;112049.66;5052852;28;20703;-72
2022/08/06 06:17:31;;;;;;;2.60;1.77;;;23.30;52.70;;;-142.21;53.52;112049.66;5054532;28;20598;-73
2022/08/06 06:20:13;;;;;;;1.50;1.40;;;23.40;52.70;;;-142.21;53.19;112049.66;5047800;28;20637;-72
2022/08/06 06:22:52;;;;;;;2.83;1.80;;;23.40;52.50;;;-142.21;52.79;112049.66;5054695;28;20283;-73
2022/08/06 06:25:29;;;;;;;2.17;1.33;;;23.50;52.20;;;-142.21;53.48;112049.66;5055484;28;20200;-71
2022/08/06 06:28:03;;;;;;;1.80;1.70;;;23.50;52.30;;;-142.21;53.21;112049.66;5042713;28;20300;-73
2022/08/06 06:30:59;;;;;;;2.10;1.43;;;23.50;52.10;;;-142.21;53.17;112049.66;5054643;28;20302;-73
2022/08/06 06:33:40;;;;;;;1.73;1.60;;;23.60;52.90;;;-142.21;51.95;112049.66;5045350;28;20201;-72
2022/08/06 06:36:23;;;;;;;1.80;1.70;;;23.70;52.00;;;-142.21;52.09;112049.66;5035095;28;20187;-73
2022/08/06 06:39:06;;;;;;;1.77;1.60;;;23.70;51.80;;;-142.21;51.82;112049.66;5053654;28;20295;-72
2022/08/06 06:41:42;;;;;;;2.23;1.97;;;23.80;51.70;;;-142.21;51.02;112049.66;5054213;28;20235;-72
2022/08/06 06:44:20;;;;;;;1.77;1.53;;;23.80;51.40;;;-142.21;51.68;112049.66;5050138;28;20319;-73
2022/08/06 06:46:57;;;;;;;1.67;1.57;;;23.90;51.60;;;-142.21;51.18;112049.66;5050829;28;20669;-71
2022/08/06 06:49:35;;;;;;;2.07;1.40;;;24.00;51.50;;;-142.21;52.01;112049.66;5054295;28;20217;-72
2022/08/06 06:52:13;;;;;;;3.17;1.67;;;24.10;51.70;;;-142.21;51.38;112049.66;5055090;28;20276;-71
2022/08/06 06:54:47;;;;;;;1.80;1.70;;;24.10;51.40;;;-142.21;50.99;112049.66;5054317;28;20280;-72
2022/08/06 06:57:26;;;;;;;1.57;1.47;;;24.20;51.20;;;-142.21;50.69;112049.66;5055143;28;20623;-72
2022/08/06 06:59:56;;;;;;;2.10;1.57;;;24.20;51.10;;;-142.21;50.65;112049.66;5054211;28;20190;-72
2022/08/06 07:02:28;;;;;;;1.53;1.43;;;24.30;51.20;;;-142.21;51.75;112049.66;5054372;28;20591;-72
2022/08/06 07:04:57;;;;;;;4.37;1.87;;;24.30;51.40;;;-142.21;51.33;112049.66;5045212;28;20193;-72
2022/08/06 07:07:26;;;;;;;1.40;1.30;;;24.40;51.30;;;-142.21;50.51;112049.66;5035430;28;20230;-72
2022/08/06 07:10:01;;;;;;;1.93;1.47;;;24.40;51.20;;;-142.21;50.28;112049.66;5040968;28;20308;-72
2022/08/06 07:12:34;;;;;;;2.67;1.63;;;24.60;51.20;;;-142.21;49.87;112049.66;5029810;28;20209;-72
2022/08/06 07:15:07;;;;;;;2.13;1.77;;;24.70;51.20;;;-142.21;50.40;112049.66;5050264;28;20289;-73
2022/08/06 07:17:37;;;;;;;1.67;1.57;;;24.80;51.20;;;-142.21;49.28;112049.66;5053382;28;20198;-73
2022/08/06 07:20:10;;;;;;;2.00;1.77;;;24.80;50.80;;;-142.21;49.17;112049.66;5052065;28;20236;-72
2022/08/06 07:22:43;;;;;;;4.43;1.50;;;24.90;50.70;;;-142.21;48.67;112049.66;5035448;28;20244;-72
2022/08/06 07:25:15;;;;;;;1.77;1.67;;;25.00;50.50;;;-142.21;48.26;112049.66;5051504;28;20272;-72
2022/08/06 07:27:49;;;;;;;2.60;1.23;;;25.00;50.20;;;-142.21;48.32;112049.66;5053226;28;20219;-73
2022/08/06 07:30:19;;;;;;;4.00;1.60;;;25.10;50.10;;;-142.21;47.51;112049.66;5051860;28;20289;-73
2022/08/06 07:32:48;;;;;;;1.70;1.60;;;25.20;49.90;;;-142.21;48.16;112049.66;5053089;28;20654;-73
2022/08/06 07:35:17;;;;;;;1.37;1.20;;;25.30;50.00;;;-142.21;46.41;112049.66;5053376;28;20734;-72
2022/08/06 07:37:54;;;;;;;2.53;1.57;;;25.40;49.50;;;-142.21;45.51;112049.66;5053296;28;20285;-72
2022/08/06 07:40:27;;;;;;;3.00;1.57;;;25.50;49.00;;;-142.21;45.82;112049.66;5049905;28;20535;-72
2022/08/06 07:43:02;;;;;;;1.83;1.43;;;25.60;48.90;;;-142.21;46.32;112049.66;5045509;28;20325;-73
2022/08/06 07:45:34;;;;;;;1.37;1.27;;;25.60;49.00;;;-142.21;45.96;112049.66;5052950;28;20709;-71
2022/08/06 07:48:08;;;;;;;2.93;1.67;;;25.80;48.90;;;-142.21;46.01;112049.66;5053530;28;20190;-71
2022/08/06 07:50:36;;;;;;;1.50;1.40;;;25.80;49.00;;;-142.21;43.11;112049.66;5052447;28;20300;-74
2022/08/06 07:53:04;;;;;;;2.20;1.60;;;25.90;47.80;;;-142.21;42.85;112049.66;5053732;28;20297;-73
2022/08/06 07:55:35;;;;;;;1.70;1.50;;;26.00;47.30;;;-142.21;42.92;112049.66;5035083;28;20245;-73
2022/08/06 07:58:03;;;;;;;2.27;1.40;;;26.00;47.30;;;-142.21;43.14;112049.66;5039449;28;20200;-72
2022/08/06 08:00:31;;;;;;;1.43;1.33;;;26.10;47.20;;;-142.21;42.44;112049.66;5056208;28;20198;-72
2022/08/06 08:08:32;;;;;;;2.43;1.30;;;26.20;46.20;;;-142.21;40.17;112049.66;5052102;28;20223;-72
2022/08/06 08:11:01;;;;;;;1.47;1.10;;;26.30;45.30;;;-142.21;39.18;112049.66;5050502;28;20235;-72
2022/08/06 08:13:32;;;;;;;1.93;1.20;;;26.30;44.70;;;-142.21;38.28;112049.66;5051328;28;20216;-73
2022/08/06 08:16:00;;;;;;;2.03;1.40;;;26.30;43.80;;;-142.21;38.14;112049.66;5053180;28;20212;-73
2022/08/06 08:18:32;;;;;;;1.37;1.20;;;26.40;44.00;;;-142.21;37.63;112049.66;5052912;28;20308;-72
2022/08/06 08:21:02;;;;;;;1.00;0.97;;;26.40;43.60;;;-142.21;38.30;112049.66;5046896;28;20730;-72
2022/08/06 08:23:31;;;;;;;1.00;0.90;;;26.50;43.70;;;-142.21;37.18;112049.66;5040512;28;20686;-72
2022/08/06 08:26:03;;;;;;;0.80;0.80;;;26.60;43.00;;;-142.21;36.44;112049.66;5052611;28;20659;-73
2022/08/06 08:28:31;;;;;;;1.47;1.13;;;26.70;42.40;;;-142.21;37.23;112049.66;5052434;28;20198;-73
2022/08/06 08:31:01;;;;;;;1.97;1.30;;;26.80;43.00;;;-142.21;36.48;112049.66;5046883;28;20745;-73
2022/08/06 08:33:29;;;;;;;1.43;1.03;;;26.80;42.30;;;-142.21;35.54;112049.66;5042619;28;20208;-73
2022/08/06 08:35:56;;;;;;;1.33;1.10;;;26.80;41.20;;;-142.21;34.88;112049.66;5052001;28;20213;-72
2022/08/06 08:38:24;;;;;;;1.67;1.10;;;26.90;40.50;;;-142.21;34.66;112049.66;5052766;28;20232;-72
2022/08/06 08:40:55;;;;;;;2.50;1.17;;;26.90;40.30;;;-142.21;35.07;112049.66;5046362;28;20257;-71
2022/08/06 08:43:30;;;;;;;1.40;1.30;;;27.00;40.40;;;-142.21;35.13;112049.66;5032314;28;20330;-73
2022/08/06 08:46:02;;;;;;;2.63;1.20;;;27.00;40.60;;;-142.21;34.93;112049.66;5032385;28;20186;-71
2022/08/06 08:48:32;;;;;;;1.60;1.27;;;27.10;40.30;;;-142.21;34.91;112049.66;5032748;28;20662;-73
2022/08/06 08:51:00;;;;;;;1.07;0.90;;;27.10;40.10;;;-142.21;34.35;112049.66;5042852;28;20236;-72
2022/08/06 08:53:38;;;;;;;1.53;1.00;;;27.20;40.00;;;-142.21;34.39;112049.66;5050673;28;20213;-73
2022/08/06 08:56:07;;;;;;;1.37;0.90;;;27.30;39.80;;;-142.21;34.21;112049.66;5052499;28;20287;-72
2022/08/06 08:58:38;;;;;;;1.20;0.77;;;27.40;39.70;;;-142.21;33.94;112049.66;5051813;28;20210;-73
2022/08/06 09:01:10;;;;;;;1.10;1.10;;;27.40;39.40;;;-142.21;34.41;112049.66;5048419;28;20195;-73
2022/08/06 09:03:41;;;;;;;1.27;0.90;;;27.50;39.40;;;-142.21;34.22;112049.66;5051989;28;20208;-73
2022/08/06 09:06:08;;;;;;;1.70;1.00;;;27.50;39.60;;;-142.21;33.91;112049.66;5052364;28;20199;-75
2022/08/06 09:08:39;;;;;;;1.07;1.07;;;27.60;39.60;;;-142.21;34.18;112049.66;5051575;28;20253;-73
2022/08/06 09:11:06;;;;;;;1.53;1.20;;;27.60;39.20;;;-142.21;33.51;112049.66;5048179;28;20212;-73
2022/08/06 09:13:38;;;;;;;2.70;1.10;;;27.70;38.70;;;-142.21;33.27;112049.66;5044234;28;20210;-73
2022/08/06 09:16:06;;;;;;;3.20;1.20;;;27.70;38.50;;;-142.21;32.95;112049.66;5051733;28;20199;-74
2022/08/06 09:18:34;;;;;;;1.20;1.10;;;27.80;38.30;;;-142.21;34.07;112049.66;5051774;28;20292;-74
2022/08/06 09:21:06;;;;;;;0.87;0.87;;;27.90;38.90;;;-142.21;33.76;112049.66;5051333;28;20286;-74
2022/08/06 09:23:33;;;;;;;1.17;1.07;;;28.00;38.80;;;-142.21;33.01;112049.66;5050621;28;20192;-74
2022/08/06 09:26:06;;;;;;;3.17;1.30;;;28.00;38.10;;;-142.21;33.62;112049.66;5016429;28;20203;-73
2022/08/06 09:28:39;;;;;;;1.50;1.27;;;28.10;38.50;;;-142.21;33.03;112049.66;5050665;28;20370;-75
2022/08/06 09:31:09;;;;;;;1.50;1.10;;;28.20;38.10;;;-142.21;33.25;112049.66;5048711;28;20226;-73
2022/08/06 09:33:39;;;;;;;1.10;1.00;;;28.30;38.40;;;-142.21;32.79;112049.66;5047425;28;20599;-74
2022/08/06 09:36:10;;;;;;;1.13;1.03;;;28.30;38.00;;;-142.21;32.45;112049.66;5030884;28;20212;-74
2022/08/06 09:38:50;;;;;;;1.00;1.00;;;28.30;37.60;;;-142.21;32.45;112049.66;5047299;28;20197;-75
2022/08/06 09:41:19;;;;;;;1.30;1.20;;;28.40;37.20;;;-142.21;31.43;112049.66;5032418;28;20725;-76
2022/08/06 09:43:51;;;;;;;0.90;0.90;;;28.40;36.40;;;-142.21;32.88;112049.66;5047367;28;20235;-75
2022/08/06 09:46:38;;;;;;;2.17;1.20;;;28.60;37.80;;;-142.21;32.17;112049.66;5052002;28;20191;-73
2022/08/06 09:49:06;;;;;;;1.60;1.20;;;28.60;36.40;;;-142.21;32.11;112049.66;5051565;28;20293;-75
2022/08/06 09:51:34;;;;;;;1.20;1.10;;;28.70;37.10;;;-142.21;32.43;112049.66;5042487;28;20249;-74
2022/08/06 09:54:04;;;;;;;2.23;1.30;;;28.80;37.00;;;-142.21;31.25;112049.66;5049971;28;20200;-74
2022/08/06 09:56:33;;;;;;;0.80;0.80;;;28.90;36.30;;;-142.21;31.73;112049.66;5051826;28;20202;-75
2022/08/06 09:59:07;;;;;;;1.43;1.03;;;28.90;36.90;;;-142.21;32.22;112049.66;5051148;28;20251;-75
2022/08/06 10:01:40;;;;;;;1.10;1.00;;;29.00;36.60;;;-142.21;31.39;112049.66;5050269;28;20243;-74
2022/08/06 10:04:12;;;;;;;0.70;0.70;;;29.10;35.90;;;-142.21;31.44;112049.66;5039774;28;20279;-74
2022/08/06 10:06:53;;;;;;;1.00;1.00;;;29.10;35.90;;;-142.21;31.28;112049.66;5050440;28;20302;-73
2022/08/06 10:09:20;;;;;;;0.80;0.80;;;29.20;35.40;;;-142.21;31.20;112049.66;5051503;28;20288;-73
2022/08/06 10:11:47;;;;;;;1.93;1.10;;;29.30;35.50;;;-142.21;31.05;112049.66;5048704;28;20256;-74
2022/08/06 10:14:26;;;;;;;1.70;1.10;;;29.40;35.30;;;-142.21;31.10;112049.66;5048987;28;20303;-74
2022/08/06 10:17:08;;;;;;;1.20;0.90;;;29.50;35.40;;;-142.21;31.83;112049.66;5051135;28;20192;-74
2022/08/06 10:19:36;;;;;;;1.00;0.90;;;29.60;35.80;;;-142.21;31.06;112049.66;5050624;28;20286;-73
2022/08/06 10:22:08;;;;;;;1.00;1.00;;;29.80;35.50;;;-142.21;30.71;112049.66;5035304;28;20688;-74
2022/08/06 10:24:42;;;;;;;1.83;0.90;;;29.80;34.80;;;-142.21;31.05;112049.66;5041190;28;20249;-74
2022/08/06 10:27:12;;;;;;;1.90;1.17;;;29.80;35.00;;;-142.21;30.43;112049.66;5050961;28;20676;-73